Time;durP1;ratioP1;P1;durP2;ratioP2;P2;SDS_P1;SDS_P2;PMS_P1;PMS_P2;Temp;Humidity;BMP_temperature;BMP_pressure;BME280_temperature;BME280_humidity;BME280_pressure;Samples;Min_cycle;Max_cycle;Signal;HPM_P1;HPM_P2
2022/01/29 00:02:22;;;;;;;;;;;3.00;96.50;;;;;;5003261;28;19910;-65
2022/01/29 00:04:47;;;;;;;;;;;3.00;96.60;;;;;;5003157;28;19914;-65
2022/01/29 00:07:13;;;;;;;;;;;3.10;96.60;;;;;;5003507;28;19949;-65
2022/01/29 00:09:39;;;;;;;;;;;3.10;96.80;;;;;;5003456;28;19910;-65
2022/01/29 00:12:05;;;;;;;;;;;3.10;96.50;;;;;;5002721;28;19921;-65
2022/01/29 00:14:31;;;;;;;;;;;3.10;96.40;;;;;;5003718;28;20109;-65
2022/01/29 00:16:57;;;;;;;;;;;3.20;96.40;;;;;;4996225;28;20013;-65
2022/01/29 00:19:22;;;;;;;;;;;3.20;96.40;;;;;;4984107;28;19910;-65
2022/01/29 00:21:48;;;;;;;;;;;3.20;96.50;;;;;;4983600;28;19910;-65
2022/01/29 00:24:14;;;;;;;;;;;3.20;96.50;;;;;;4983894;28;19949;-65
2022/01/29 00:26:39;;;;;;;;;;;3.10;96.40;;;;;;4983867;28;19914;-65
2022/01/29 00:29:15;;;;;;;;;;;3.20;96.50;;;;;;4983736;28;19919;-66
2022/01/29 00:31:40;;;;;;;;;;;3.20;96.40;;;;;;4983820;28;19910;-66
2022/01/29 00:34:06;;;;;;;;;;;3.30;96.20;;;;;;4991678;28;19985;-66
2022/01/29 00:36:32;;;;;;;;;;;3.30;96.20;;;;;;5003301;28;19910;-65
2022/01/29 00:38:57;;;;;;;;;;;3.30;96.30;;;;;;5003148;28;20200;-65
2022/01/29 00:41:23;;;;;;;;;;;3.20;96.30;;;;;;5002975;28;19948;-66
2022/01/29 00:43:49;;;;;;;;;;;3.30;96.40;;;;;;5002982;28;19972;-65
2022/01/29 00:46:14;;;;;;;;;;;3.30;96.20;;;;;;5003200;28;20223;-66
2022/01/29 00:48:40;;;;;;;;;;;3.30;96.30;;;;;;5003118;28;19917;-65
2022/01/29 00:51:06;;;;;;;;;;;3.30;96.30;;;;;;5002913;28;19964;-65
2022/01/29 00:53:31;;;;;;;;;;;3.30;96.20;;;;;;5003008;28;19909;-65
2022/01/29 00:55:57;;;;;;;;;;;3.30;96.20;;;;;;5003122;28;19992;-65
2022/01/29 00:58:23;;;;;;;;;;;3.30;96.30;;;;;;5006339;28;19909;-65
2022/01/29 01:00:48;;;;;;;;;;;3.30;96.20;;;;;;5006522;28;19910;-65
2022/01/29 01:03:14;;;;;;;;;;;3.30;96.20;;;;;;5006711;28;19953;-65
2022/01/29 01:05:40;;;;;;;;;;;3.30;96.20;;;;;;5006682;28;19913;-65
2022/01/29 01:08:07;;;;;;;;;;;3.30;96.20;;;;;;5006592;28;19917;-65
2022/01/29 01:10:33;;;;;;;;;;;3.30;96.00;;;;;;5006496;28;19936;-65
2022/01/29 01:12:59;;;;;;;;;;;3.30;96.00;;;;;;5006238;28;19914;-65
2022/01/29 01:15:24;;;;;;;;;;;3.20;96.10;;;;;;5006546;28;19988;-65
2022/01/29 01:17:50;;;;;;;;;;;3.30;96.00;;;;;;5006549;28;19910;-66
2022/01/29 01:20:16;;;;;;;;;;;3.30;96.00;;;;;;5006448;28;19980;-66
2022/01/29 01:22:42;;;;;;;;;;;3.30;95.80;;;;;;5005945;28;19910;-66
2022/01/29 01:25:08;;;;;;;;;;;3.30;95.80;;;;;;5006383;28;20112;-66
2022/01/29 01:27:34;;;;;;;;;;;3.30;95.80;;;;;;5006095;28;19964;-65
2022/01/29 01:29:59;;;;;;;;;;;3.30;95.90;;;;;;5006394;28;19910;-65
2022/01/29 01:32:25;;;;;;;;;;;3.30;95.90;;;;;;5005902;28;19910;-65
2022/01/29 01:34:54;;;;;;;;;;;3.30;95.90;;;;;;5006288;28;20025;-66
2022/01/29 01:37:46;;;;;;;;;;;3.40;95.90;;;;;;5005987;28;19933;-65
2022/01/29 01:40:09;;;;;;;;;;;3.30;95.90;;;;;;4992100;28;20096;-65
2022/01/29 01:42:35;;;;;;;;;;;3.30;95.90;;;;;;5005468;28;19917;-65
2022/01/29 01:45:01;;;;;;;;;;;3.30;96.00;;;;;;5006024;28;19914;-65
2022/01/29 01:47:26;;;;;;;;;;;3.30;95.90;;;;;;5006051;28;19909;-65
2022/01/29 01:49:52;;;;;;;;;;;3.30;95.90;;;;;;5005755;28;19909;-65
2022/01/29 01:52:18;;;;;;;;;;;3.30;95.90;;;;;;5005539;28;19909;-66
2022/01/29 01:54:43;;;;;;;;;;;3.40;95.90;;;;;;5005836;28;19988;-65
2022/01/29 01:57:09;;;;;;;;;;;3.40;95.80;;;;;;5005759;28;19909;-65
2022/01/29 01:59:35;;;;;;;;;;;3.40;95.90;;;;;;5005734;28;19917;-65
2022/01/29 02:02:01;;;;;;;;;;;3.30;95.80;;;;;;5005468;28;20200;-65
2022/01/29 02:04:27;;;;;;;;;;;3.40;95.80;;;;;;5005543;28;19917;-65
2022/01/29 02:06:53;;;;;;;;;;;3.40;95.70;;;;;;5005539;28;19913;-65
2022/01/29 02:09:21;;;;;;;;;;;3.40;95.80;;;;;;5004403;28;19910;-65
2022/01/29 02:11:50;;;;;;;;;;;3.40;95.80;;;;;;5005223;28;19937;-65
2022/01/29 02:14:17;;;;;;;;;;;3.40;95.80;;;;;;5005345;28;19988;-65
2022/01/29 02:16:43;;;;;;;;;;;3.40;95.90;;;;;;4988311;28;19909;-65
2022/01/29 02:19:08;;;;;;;;;;;3.40;95.90;;;;;;5005326;28;19922;-65
2022/01/29 02:21:38;;;;;;;;;;;3.40;95.80;;;;;;5004981;28;19916;-65
2022/01/29 02:24:03;;;;;;;;;;;3.40;95.80;;;;;;5005356;28;19917;-65
2022/01/29 02:26:29;;;;;;;;;;;3.40;95.80;;;;;;5005235;28;19914;-65
2022/01/29 02:28:55;;;;;;;;;;;3.30;95.90;;;;;;4987671;28;19917;-65
2022/01/29 02:31:21;;;;;;;;;;;3.40;95.90;;;;;;5004814;28;19914;-65
2022/01/29 02:33:47;;;;;;;;;;;3.30;95.90;;;;;;5005071;28;19936;-65
2022/01/29 02:36:12;;;;;;;;;;;3.30;96.00;;;;;;5005080;28;20204;-65
2022/01/29 02:38:38;;;;;;;;;;;3.30;96.00;;;;;;5005068;28;19976;-65
2022/01/29 02:41:06;;;;;;;;;;;3.30;96.10;;;;;;5004866;28;19917;-66
2022/01/29 02:43:36;;;;;;;;;;;3.30;96.00;;;;;;5004614;28;19910;-66
2022/01/29 02:46:12;;;;;;;;;;;3.30;96.00;;;;;;5004872;28;20208;-66
2022/01/29 02:48:38;;;;;;;;;;;3.30;96.00;;;;;;5005080;28;19909;-65
2022/01/29 02:51:03;;;;;;;;;;;3.30;96.00;;;;;;5004558;28;19985;-65
2022/01/29 02:53:29;;;;;;;;;;;3.40;96.00;;;;;;5004592;28;20223;-65
2022/01/29 02:55:55;;;;;;;;;;;3.30;96.00;;;;;;5004805;28;19957;-66
2022/01/29 02:58:20;;;;;;;;;;;3.30;96.00;;;;;;4987195;28;20345;-65
2022/01/29 03:00:46;;;;;;;;;;;3.30;96.00;;;;;;5004340;28;19916;-65
2022/01/29 03:03:12;;;;;;;;;;;3.30;96.00;;;;;;5004692;28;20200;-65
2022/01/29 03:05:37;;;;;;;;;;;3.30;96.00;;;;;;5004386;28;19925;-65
2022/01/29 03:08:03;;;;;;;;;;;3.30;95.80;;;;;;5004550;28;19955;-65
2022/01/29 03:10:29;;;;;;;;;;;3.30;95.90;;;;;;5004352;28;19916;-65
2022/01/29 03:12:55;;;;;;;;;;;3.30;95.90;;;;;;5003807;28;19941;-65
2022/01/29 03:15:20;;;;;;;;;;;3.30;95.80;;;;;;5004199;28;20094;-65
2022/01/29 03:17:46;;;;;;;;;;;3.30;95.70;;;;;;5004313;28;19956;-65
2022/01/29 03:20:12;;;;;;;;;;;3.30;95.70;;;;;;5003784;28;19910;-65
2022/01/29 03:22:38;;;;;;;;;;;3.30;95.70;;;;;;5003899;28;20108;-65
2022/01/29 03:25:05;;;;;;;;;;;3.30;95.60;;;;;;5004089;28;19949;-65
2022/01/29 03:27:30;;;;;;;;;;;3.30;95.50;;;;;;5003856;28;19914;-65
2022/01/29 03:29:56;;;;;;;;;;;3.30;95.50;;;;;;5004059;28;19921;-65
2022/01/29 03:32:22;;;;;;;;;;;3.30;95.30;;;;;;5003724;28;20156;-65
2022/01/29 03:34:47;;;;;;;;;;;3.30;95.40;;;;;;5003410;28;19909;-65
2022/01/29 03:37:13;;;;;;;;;;;3.30;95.30;;;;;;5003908;28;19909;-65
2022/01/29 03:39:41;;;;;;;;;;;3.30;95.20;;;;;;5003909;28;19910;-65
2022/01/29 03:42:09;;;;;;;;;;;3.30;95.10;;;;;;5003544;28;19916;-65
2022/01/29 03:44:35;;;;;;;;;;;3.30;95.10;;;;;;5003577;28;19909;-65
2022/01/29 03:47:00;;;;;;;;;;;3.20;95.10;;;;;;5003986;28;19933;-65
2022/01/29 03:49:26;;;;;;;;;;;3.30;95.20;;;;;;5003809;28;19910;-65
2022/01/29 03:51:52;;;;;;;;;;;3.30;95.20;;;;;;5003606;28;19965;-65
2022/01/29 03:54:17;;;;;;;;;;;3.30;95.30;;;;;;5003719;28;19917;-65
2022/01/29 03:56:43;;;;;;;;;;;3.30;95.30;;;;;;5003726;28;19917;-65
2022/01/29 03:59:09;;;;;;;;;;;3.30;95.30;;;;;;5003315;28;20259;-65
2022/01/29 04:01:34;;;;;;;;;;;3.20;95.40;;;;;;5003471;28;19932;-65
2022/01/29 04:04:00;;;;;;;;;;;3.20;95.40;;;;;;5003506;28;19909;-65
2022/01/29 04:06:26;;;;;;;;;;;3.30;95.40;;;;;;5003524;28;19914;-65
2022/01/29 04:08:52;;;;;;;;;;;3.30;95.50;;;;;;5003559;28;20112;-65
2022/01/29 04:11:17;;;;;;;;;;;3.30;95.40;;;;;;5003340;28;19909;-65
2022/01/29 04:13:46;;;;;;;;;;;3.30;95.40;;;;;;5003061;28;20282;-65
2022/01/29 04:16:12;;;;;;;;;;;3.30;95.40;;;;;;5003518;28;19917;-65
2022/01/29 04:18:38;;;;;;;;;;;3.40;94.70;;;;;;5003428;28;19910;-65
2022/01/29 04:21:04;;;;;;;;;;;3.40;94.80;;;;;;5003215;28;20123;-65
2022/01/29 04:23:29;;;;;;;;;;;3.30;94.90;;;;;;5003515;28;19949;-66
2022/01/29 04:25:55;;;;;;;;;;;3.30;95.00;;;;;;5002714;28;19913;-66
2022/01/29 04:28:24;;;;;;;;;;;3.30;95.10;;;;;;5003119;28;19910;-66
2022/01/29 04:30:56;;;;;;;;;;;3.30;95.10;;;;;;5003020;28;19914;-66
2022/01/29 04:35:48;;;;;;;;;;;3.20;95.00;;;;;;5007304;28;20223;-66
2022/01/29 04:38:13;;;;;;;;;;;3.20;95.20;;;;;;5007321;28;19917;-65
2022/01/29 04:40:39;;;;;;;;;;;3.20;95.10;;;;;;5006831;28;19913;-65
2022/01/29 04:43:04;;;;;;;;;;;3.20;95.20;;;;;;5006881;28;19910;-66
2022/01/29 04:45:30;;;;;;;;;;;3.20;95.20;;;;;;5007085;28;19922;-66
2022/01/29 04:47:56;;;;;;;;;;;3.20;95.10;;;;;;5007001;28;20104;-65
2022/01/29 04:50:22;;;;;;;;;;;3.20;95.20;;;;;;5007047;28;19944;-66
2022/01/29 04:52:48;;;;;;;;;;;3.30;95.20;;;;;;5006631;28;20074;-66
2022/01/29 04:55:13;;;;;;;;;;;3.30;95.10;;;;;;5006873;28;19910;-66
2022/01/29 04:57:41;;;;;;;;;;;3.20;95.10;;;;;;5006560;28;19914;-66
2022/01/29 05:00:11;;;;;;;;;;;3.30;95.10;;;;;;5003969;28;19920;-66
2022/01/29 05:02:37;;;;;;;;;;;3.30;95.00;;;;;;5006389;28;19914;-66
2022/01/29 05:05:04;;;;;;;;;;;3.20;95.20;;;;;;5006741;28;19913;-66
2022/01/29 05:07:30;;;;;;;;;;;3.20;95.20;;;;;;5006765;28;19917;-66
2022/01/29 05:09:55;;;;;;;;;;;3.20;95.30;;;;;;5006695;28;19909;-66
2022/01/29 05:12:26;;;;;;;;;;;3.20;95.20;;;;;;5000497;28;19914;-65
2022/01/29 05:28:15;;;;;;;;;;;3.10;95.50;;;;;;5049696;23;19928;-69
2022/01/29 05:30:41;;;;;;;;;;;3.20;95.50;;;;;;5010803;28;19909;-69
2022/01/29 05:33:07;;;;;;;;;;;3.20;95.40;;;;;;5017501;28;19917;-71
2022/01/29 05:35:32;;;;;;;;;;;3.10;95.50;;;;;;5024421;28;20128;-70
2022/01/29 05:37:59;;;;;;;;;;;3.20;95.60;;;;;;5018246;28;19977;-71
2022/01/29 05:40:25;;;;;;;;;;;3.20;95.70;;;;;;5001572;28;19910;-70
2022/01/29 05:42:51;;;;;;;;;;;3.20;95.40;;;;;;5015686;28;19917;-70
2022/01/29 05:45:16;;;;;;;;;;;3.20;95.40;;;;;;5004776;28;19949;-70
2022/01/29 05:47:42;;;;;;;;;;;3.20;95.40;;;;;;5004935;28;20112;-70
2022/01/29 05:50:08;;;;;;;;;;;3.20;95.40;;;;;;5004988;28;19983;-69
2022/01/29 05:52:34;;;;;;;;;;;3.20;95.20;;;;;;5004646;28;19984;-69
2022/01/29 05:54:59;;;;;;;;;;;3.20;95.40;;;;;;5004887;28;20089;-69
2022/01/29 05:57:25;;;;;;;;;;;3.20;95.50;;;;;;4986991;28;19989;-69
2022/01/29 05:59:51;;;;;;;;;;;3.20;95.50;;;;;;5004621;28;19982;-69
2022/01/29 06:02:17;;;;;;;;;;;3.20;95.90;;;;;;4987060;28;20209;-69
2022/01/29 06:04:42;;;;;;;;;;;3.20;95.70;;;;;;5004504;28;19952;-69
2022/01/29 06:07:08;;;;;;;;;;;3.20;95.60;;;;;;5004624;28;20100;-69
2022/01/29 06:09:33;;;;;;;;;;;3.20;95.60;;;;;;5004617;28;19910;-69
2022/01/29 06:11:59;;;;;;;;;;;3.20;95.70;;;;;;5004107;28;19909;-69
2022/01/29 06:14:25;;;;;;;;;;;3.30;95.70;;;;;;5004521;28;19972;-69
2022/01/29 06:16:51;;;;;;;;;;;3.20;95.60;;;;;;4986929;28;19909;-69
2022/01/29 06:19:16;;;;;;;;;;;3.20;95.60;;;;;;5007393;28;20043;-69
2022/01/29 06:21:42;;;;;;;;;;;3.20;95.60;;;;;;5023622;28;20116;-69
2022/01/29 06:24:08;;;;;;;;;;;3.20;95.60;;;;;;5023947;28;19940;-69
2022/01/29 06:26:33;;;;;;;;;;;3.20;95.80;;;;;;5023499;28;20000;-69
2022/01/29 06:28:59;;;;;;;;;;;3.20;95.80;;;;;;4986626;28;19910;-69
2022/01/29 06:31:25;;;;;;;;;;;3.20;95.80;;;;;;5003968;28;20108;-69
2022/01/29 06:33:50;;;;;;;;;;;3.20;95.90;;;;;;5004143;28;19952;-69
2022/01/29 06:36:16;;;;;;;;;;;3.20;95.80;;;;;;5004193;28;19909;-69
2022/01/29 06:38:42;;;;;;;;;;;3.20;95.90;;;;;;5004157;28;19999;-69
2022/01/29 06:41:07;;;;;;;;;;;3.30;95.90;;;;;;5003788;28;19938;-69
2022/01/29 06:43:33;;;;;;;;;;;3.20;95.90;;;;;;5003645;28;20201;-68
2022/01/29 06:45:59;;;;;;;;;;;3.20;96.10;;;;;;5003866;28;19940;-68
2022/01/29 06:48:25;;;;;;;;;;;3.20;96.10;;;;;;5002601;28;19909;-68
2022/01/29 06:50:50;;;;;;;;;;;3.20;96.10;;;;;;5003425;28;19986;-68
2022/01/29 06:53:16;;;;;;;;;;;3.20;96.10;;;;;;5012388;28;19914;-68
2022/01/29 06:55:42;;;;;;;;;;;3.20;96.10;;;;;;4998107;28;20039;-69
2022/01/29 06:58:07;;;;;;;;;;;3.20;96.10;;;;;;4979379;28;19909;-69
2022/01/29 07:00:33;;;;;;;;;;;3.20;96.00;;;;;;5003368;28;19968;-68
2022/01/29 07:02:59;;;;;;;;;;;3.20;96.00;;;;;;5003468;28;19941;-69
2022/01/29 07:05:24;;;;;;;;;;;3.20;96.00;;;;;;5003422;28;19913;-69
2022/01/29 07:07:50;;;;;;;;;;;3.20;96.00;;;;;;5003349;28;19987;-69
2022/01/29 07:10:17;;;;;;;;;;;3.20;96.10;;;;;;5003547;28;19989;-69
2022/01/29 07:12:43;;;;;;;;;;;3.20;96.00;;;;;;5002809;28;19910;-69
2022/01/29 07:15:09;;;;;;;;;;;3.30;95.90;;;;;;4985932;28;20361;-69
2022/01/29 07:17:35;;;;;;;;;;;3.30;95.90;;;;;;5003408;28;19917;-69
2022/01/29 07:20:01;;;;;;;;;;;3.30;95.80;;;;;;5003295;28;19910;-69
2022/01/29 07:22:26;;;;;;;;;;;3.30;95.80;;;;;;5003039;28;19959;-69
2022/01/29 07:24:52;;;;;;;;;;;3.30;95.80;;;;;;4985785;28;19917;-69
2022/01/29 07:27:18;;;;;;;;;;;3.40;95.70;;;;;;5002743;28;19914;-69
2022/01/29 07:29:44;;;;;;;;;;;3.30;95.80;;;;;;5003131;28;20036;-68
2022/01/29 07:32:10;;;;;;;;;;;3.40;95.80;;;;;;5002766;28;19913;-67
2022/01/29 07:34:35;;;;;;;;;;;3.40;96.10;;;;;;5002650;28;20193;-68
2022/01/29 07:37:01;;;;;;;;;;;3.60;97.00;;;;;;5003105;28;19981;-68
2022/01/29 07:39:27;;;;;;;;;;;3.60;95.70;;;;;;5003099;28;20337;-68
2022/01/29 07:41:53;;;;;;;;;;;3.60;95.30;;;;;;5002633;28;19909;-68
2022/01/29 07:44:18;;;;;;;;;;;3.50;95.50;;;;;;5003072;28;19932;-68
2022/01/29 07:46:44;;;;;;;;;;;3.40;95.60;;;;;;5002901;28;20098;-68
2022/01/29 07:49:10;;;;;;;;;;;3.50;95.60;;;;;;5003082;28;19916;-67
2022/01/29 07:51:36;;;;;;;;;;;3.50;95.50;;;;;;5002766;28;19972;-67
2022/01/29 07:54:02;;;;;;;;;;;3.50;95.60;;;;;;5002918;28;19910;-68
2022/01/29 07:56:28;;;;;;;;;;;3.50;95.70;;;;;;5001762;28;19992;-68
2022/01/29 07:58:54;;;;;;;;;;;3.40;95.70;;;;;;5002614;28;19914;-68
2022/01/29 08:01:19;;;;;;;;;;;3.40;95.60;;;;;;5002226;28;19960;-68
2022/01/29 08:03:46;;;;;;;;;;;3.40;95.80;;;;;;5002891;28;19997;-68
2022/01/29 08:06:13;;;;;;;;;;;3.40;95.80;;;;;;4985605;28;19921;-68
2022/01/29 08:08:39;;;;;;;;;;;3.30;96.00;;;;;;5007939;28;19917;-68
2022/01/29 08:11:04;;;;;;;;;;;3.30;96.10;;;;;;5010314;28;20319;-67
2022/01/29 08:13:30;;;;;;;;;;;3.30;96.10;;;;;;5011767;28;19920;-68
2022/01/29 08:15:56;;;;;;;;;;;3.30;96.30;;;;;;5008155;28;19913;-68
2022/01/29 08:18:21;;;;;;;;;;;3.20;96.50;;;;;;5022199;28;20235;-68
2022/01/29 08:20:47;;;;;;;;;;;3.20;96.50;;;;;;5021981;28;19913;-68
2022/01/29 08:23:13;;;;;;;;;;;3.30;96.40;;;;;;5018739;28;19916;-68
2022/01/29 08:25:38;;;;;;;;;;;3.20;96.50;;;;;;5019609;28;19925;-68
2022/01/29 08:28:05;;;;;;;;;;;3.30;96.50;;;;;;5008971;28;20202;-68
2022/01/29 08:30:30;;;;;;;;;;;3.30;96.40;;;;;;4984960;28;19956;-68
2022/01/29 08:32:56;;;;;;;;;;;3.30;96.40;;;;;;5002228;28;19953;-68
2022/01/29 08:35:22;;;;;;;;;;;3.20;96.50;;;;;;5002343;28;19909;-69
2022/01/29 08:37:47;;;;;;;;;;;3.20;96.60;;;;;;5002027;28;19937;-69
2022/01/29 08:40:13;;;;;;;;;;;3.20;96.60;;;;;;5002049;28;19964;-70
2022/01/29 08:42:39;;;;;;;;;;;3.20;96.60;;;;;;5001577;28;19956;-69
2022/01/29 08:45:05;;;;;;;;;;;3.30;96.60;;;;;;5002003;28;19984;-69
2022/01/29 08:47:31;;;;;;;;;;;3.30;96.60;;;;;;5001841;28;19917;-69
2022/01/29 08:49:57;;;;;;;;;;;3.30;96.60;;;;;;5000952;28;19945;-69
2022/01/29 08:52:22;;;;;;;;;;;3.30;96.50;;;;;;4981277;28;19910;-69
2022/01/29 08:54:48;;;;;;;;;;;3.30;96.50;;;;;;4982088;28;19914;-67
2022/01/29 08:57:14;;;;;;;;;;;3.40;96.50;;;;;;4987327;28;19909;-67
2022/01/29 08:59:39;;;;;;;;;;;3.50;96.40;;;;;;4984451;28;20155;-67
2022/01/29 09:02:05;;;;;;;;;;;3.50;96.20;;;;;;5001643;28;19910;-68
2022/01/29 09:04:31;;;;;;;;;;;3.50;96.30;;;;;;5001630;28;20139;-69
2022/01/29 09:06:56;;;;;;;;;;;3.60;96.20;;;;;;5001264;28;19914;-69
2022/01/29 09:09:26;;;;;;;;;;;3.70;95.90;;;;;;5001661;28;19941;-68
2022/01/29 09:11:52;;;;;;;;;;;3.70;95.70;;;;;;4984563;28;19916;-68
2022/01/29 09:14:18;;;;;;;;;;;3.70;95.70;;;;;;5001451;28;19910;-69
2022/01/29 09:16:44;;;;;;;;;;;3.70;95.70;;;;;;4984433;28;19910;-69
2022/01/29 09:19:09;;;;;;;;;;;3.70;95.60;;;;;;5004542;28;19918;-69
2022/01/29 09:21:35;;;;;;;;;;;3.70;95.50;;;;;;5005156;28;19969;-69
2022/01/29 09:24:01;;;;;;;;;;;3.70;95.60;;;;;;5005083;28;19917;-70
2022/01/29 09:26:26;;;;;;;;;;;3.70;95.60;;;;;;5004624;28;20204;-69
2022/01/29 09:28:52;;;;;;;;;;;3.70;95.60;;;;;;5004669;28;19909;-71
2022/01/29 09:31:18;;;;;;;;;;;3.70;95.60;;;;;;4987640;28;19909;-71
2022/01/29 09:33:45;;;;;;;;;;;3.70;95.70;;;;;;5004537;28;20202;-72
2022/01/29 09:36:11;;;;;;;;;;;3.70;95.60;;;;;;5004448;28;20093;-69
2022/01/29 09:38:36;;;;;;;;;;;3.60;95.60;;;;;;5004791;28;19984;-70
2022/01/29 09:41:03;;;;;;;;;;;3.60;95.60;;;;;;5004857;28;19910;-69
2022/01/29 09:43:31;;;;;;;;;;;3.60;95.70;;;;;;4987504;28;19910;-70
2022/01/29 09:45:56;;;;;;;;;;;3.60;95.80;;;;;;4987726;28;19914;-69
2022/01/29 09:48:23;;;;;;;;;;;3.60;95.90;;;;;;5004991;28;20009;-69
2022/01/29 09:50:50;;;;;;;;;;;3.70;95.80;;;;;;5005097;28;19910;-70
2022/01/29 09:53:16;;;;;;;;;;;3.70;95.80;;;;;;4987875;28;20185;-68
2022/01/29 09:55:43;;;;;;;;;;;3.70;95.90;;;;;;4987938;28;19909;-68
2022/01/29 09:58:09;;;;;;;;;;;3.60;95.90;;;;;;5004133;28;19910;-69
2022/01/29 10:00:35;;;;;;;;;;;3.70;95.90;;;;;;4987730;28;19985;-69
2022/01/29 10:03:10;;;;;;;;;;;3.70;96.00;;;;;;4984291;28;19910;-69
2022/01/29 10:05:36;;;;;;;;;;;3.70;95.80;;;;;;4990684;28;20204;-69
2022/01/29 10:08:02;;;;;;;;;;;3.80;95.80;;;;;;5004962;28;19909;-69
2022/01/29 10:10:28;;;;;;;;;;;3.80;95.80;;;;;;5004968;28;19917;-70
2022/01/29 10:12:54;;;;;;;;;;;3.80;95.70;;;;;;5007163;28;20223;-69
2022/01/29 10:15:21;;;;;;;;;;;3.90;95.60;;;;;;5013684;28;19991;-70
2022/01/29 10:17:51;;;;;;;;;;;4.00;95.60;;;;;;5008608;28;19945;-71
2022/01/29 10:20:25;;;;;;;;;;;4.00;95.50;;;;;;5004126;28;19910;-71
2022/01/29 10:23:00;;;;;;;;;;;4.10;95.30;;;;;;5004436;28;19933;-70
2022/01/29 10:25:26;;;;;;;;;;;4.10;95.40;;;;;;4987243;28;19957;-71
2022/01/29 10:28:09;;;;;;;;;;;4.10;95.50;;;;;;5004313;28;19921;-79
2022/01/29 10:30:37;;;;;;;;;;;4.20;95.50;;;;;;4985972;28;19909;-69
2022/01/29 10:33:24;;;;;;;;;;;4.20;95.30;;;;;;5004357;28;19976;-69
2022/01/29 10:35:53;;;;;;;;;;;4.10;95.40;;;;;;5003802;28;19910;-68
2022/01/29 10:38:52;;;;;;;;;;;4.00;95.40;;;;;;4986601;28;19929;-68
2022/01/29 10:41:28;;;;;;;;;;;4.10;95.60;;;;;;4998415;28;19941;-68
2022/01/29 10:44:18;;;;;;;;;;;4.10;95.70;;;;;;4987056;28;19910;-67
2022/01/29 10:46:50;;;;;;;;;;;4.10;95.90;;;;;;5003746;28;19914;-68
2022/01/29 10:49:34;;;;;;;;;;;4.10;96.00;;;;;;5003794;28;19980;-68
2022/01/29 10:52:09;;;;;;;;;;;4.10;96.10;;;;;;5003595;28;19910;-68
2022/01/29 10:54:39;;;;;;;;;;;4.10;96.30;;;;;;5003935;28;19949;-67
2022/01/29 10:57:06;;;;;;;;;;;4.00;96.50;;;;;;5003666;28;20132;-67
2022/01/29 10:59:34;;;;;;;;;;;4.10;96.60;;;;;;5003439;28;19910;-67
2022/01/29 11:02:01;;;;;;;;;;;4.10;96.70;;;;;;5003243;28;20001;-68
2022/01/29 11:04:29;;;;;;;;;;;4.10;96.80;;;;;;5002691;28;19984;-68
2022/01/29 11:06:57;;;;;;;;;;;4.10;96.80;;;;;;4985893;28;20112;-68
2022/01/29 11:09:22;;;;;;;;;;;4.10;97.00;;;;;;5003362;28;19977;-67
2022/01/29 11:11:48;;;;;;;;;;;4.10;97.00;;;;;;4985646;28;19988;-68
2022/01/29 11:14:16;;;;;;;;;;;4.10;97.10;;;;;;4969194;28;20197;-67
2022/01/29 11:16:42;;;;;;;;;;;4.10;97.00;;;;;;5002975;28;19960;-67
2022/01/29 11:19:08;;;;;;;;;;;4.10;96.80;;;;;;4984848;28;19909;-67
2022/01/29 11:21:35;;;;;;;;;;;4.20;96.60;;;;;;4985425;28;19933;-67
2022/01/29 11:24:00;;;;;;;;;;;4.10;96.50;;;;;;5003000;28;19911;-68
2022/01/29 11:26:29;;;;;;;;;;;4.20;96.70;;;;;;4985468;28;19969;-67
2022/01/29 11:29:32;;;;;;;;;;;4.20;96.40;;;;;;5022662;23;19921;-71
2022/01/29 11:32:17;;;;;;;;;;;4.30;96.50;;;;;;5017614;28;19975;-71
2022/01/29 11:35:02;;;;;;;;;;;4.30;96.20;;;;;;5023420;28;19910;-71
2022/01/29 11:38:04;;;;;;;;;;;4.30;96.10;;;;;;5005572;28;20133;-71
2022/01/29 11:40:31;;;;;;;;;;;4.30;96.10;;;;;;4961752;28;19946;-72
2022/01/29 11:43:05;;;;;;;;;;;4.30;96.20;;;;;;5010671;28;19909;-72
2022/01/29 11:45:44;;;;;;;;;;;4.40;96.10;;;;;;5021391;28;19917;-72
2022/01/29 11:48:20;;;;;;;;;;;4.30;96.40;;;;;;5006560;28;19918;-72
2022/01/29 11:50:47;;;;;;;;;;;4.30;96.40;;;;;;5021029;28;20024;-72
2022/01/29 11:53:13;;;;;;;;;;;4.40;96.10;;;;;;5021259;28;19917;-71
2022/01/29 11:55:47;;;;;;;;;;;4.40;96.10;;;;;;5021246;28;19916;-72
2022/01/29 11:58:13;;;;;;;;;;;4.40;95.90;;;;;;5005499;28;19985;-72
2022/01/29 12:00:39;;;;;;;;;;;4.40;96.00;;;;;;5021993;28;20359;-72
2022/01/29 12:03:05;;;;;;;;;;;4.40;95.90;;;;;;5022358;28;19909;-72
2022/01/29 12:05:58;;;;;;;;;;;4.40;95.80;;;;;;5021204;28;20287;-72
2022/01/29 12:08:24;;;;;;;;;;;4.50;95.80;;;;;;5005938;28;19964;-72
2022/01/29 12:10:56;;;;;;;;;;;4.50;95.80;;;;;;5021490;28;19949;-72
2022/01/29 12:13:21;;;;;;;;;;;4.50;95.80;;;;;;4996923;28;20238;-71
2022/01/29 12:15:47;;;;;;;;;;;4.60;95.80;;;;;;5022044;28;19972;-71
2022/01/29 12:18:30;;;;;;;;;;;4.60;95.80;;;;;;5021454;28;20108;-72
2022/01/29 12:20:55;;;;;;;;;;;4.60;95.70;;;;;;4998758;28;20100;-72
2022/01/29 12:23:21;;;;;;;;;;;4.60;95.50;;;;;;5021833;28;19929;-71
2022/01/29 12:25:54;;;;;;;;;;;4.70;95.40;;;;;;5020223;28;20231;-72
2022/01/29 12:28:23;;;;;;;;;;;4.80;95.30;;;;;;5004049;28;19914;-71
2022/01/29 12:30:49;;;;;;;;;;;4.80;95.20;;;;;;5004274;28;19917;-71
2022/01/29 12:33:16;;;;;;;;;;;4.80;95.10;;;;;;5016834;28;19910;-71
2022/01/29 12:35:49;;;;;;;;;;;4.80;95.20;;;;;;5001275;28;20033;-71
2022/01/29 12:38:16;;;;;;;;;;;4.80;95.30;;;;;;5013600;28;19920;-70
2022/01/29 12:40:50;;;;;;;;;;;4.80;95.10;;;;;;5021703;28;19909;-71
2022/01/29 12:46:23;;;;;;;;;;;4.90;95.10;;;;;;5020924;28;20005;-70
2022/01/29 12:49:10;;;;;;;;;;;4.90;95.00;;;;;;5020553;28;19910;-70
2022/01/29 12:51:51;;;;;;;;;;;4.90;95.00;;;;;;5008201;28;19909;-71
2022/01/29 12:54:17;;;;;;;;;;;4.90;95.30;;;;;;5006381;28;19941;-72
2022/01/29 12:56:42;;;;;;;;;;;5.00;95.10;;;;;;5006048;28;19916;-72
2022/01/29 12:59:10;;;;;;;;;;;5.10;94.90;;;;;;5005757;28;19924;-71
2022/01/29 13:01:36;;;;;;;;;;;5.10;94.90;;;;;;5019252;28;19964;-71
2022/01/29 13:04:06;;;;;;;;;;;5.10;94.80;;;;;;5007929;28;19979;-71
2022/01/29 13:06:32;;;;;;;;;;;5.20;94.80;;;;;;5023880;28;19921;-71
2022/01/29 13:09:21;;;;;;;;;;;5.10;94.80;;;;;;5007809;28;19976;-71
2022/01/29 13:11:48;;;;;;;;;;;5.10;94.80;;;;;;5025147;28;19995;-71
2022/01/29 13:14:16;;;;;;;;;;;5.10;94.90;;;;;;5025065;28;20168;-71
2022/01/29 13:16:42;;;;;;;;;;;5.10;94.90;;;;;;5024488;28;19989;-71
2022/01/29 13:19:08;;;;;;;;;;;5.20;94.80;;;;;;5040520;28;19909;-71
2022/01/29 13:21:33;;;;;;;;;;;5.20;94.50;;;;;;5023658;28;19917;-72
2022/01/29 13:24:00;;;;;;;;;;;5.10;94.70;;;;;;5024136;28;20124;-72
2022/01/29 13:26:29;;;;;;;;;;;5.20;94.90;;;;;;5025188;28;19921;-71
2022/01/29 13:29:05;;;;;;;;;;;5.20;94.80;;;;;;5042140;28;19919;-72
2022/01/29 13:31:46;;;;;;;;;;;5.20;94.80;;;;;;5027370;28;19999;-71
2022/01/29 13:34:28;;;;;;;;;;;5.20;94.80;;;;;;5025886;28;19921;-72
2022/01/29 13:36:54;;;;;;;;;;;5.30;94.70;;;;;;5025214;28;19910;-72
2022/01/29 13:39:20;;;;;;;;;;;5.30;94.70;;;;;;5025194;28;19916;-71
2022/01/29 13:41:46;;;;;;;;;;;5.30;94.50;;;;;;5024896;28;19928;-71
2022/01/29 13:44:12;;;;;;;;;;;5.40;94.50;;;;;;5024893;28;20175;-71
2022/01/29 13:46:38;;;;;;;;;;;5.40;94.40;;;;;;5023834;28;19929;-72
2022/01/29 13:49:05;;;;;;;;;;;5.50;94.20;;;;;;5037924;28;19940;-71
2022/01/29 13:51:31;;;;;;;;;;;5.40;94.30;;;;;;5041257;28;19976;-71
2022/01/29 13:53:58;;;;;;;;;;;5.50;94.20;;;;;;5026463;28;19947;-71
2022/01/29 13:56:28;;;;;;;;;;;5.50;94.20;;;;;;5024915;28;19909;-72
2022/01/29 13:59:07;;;;;;;;;;;5.50;94.00;;;;;;5022806;28;19963;-72
2022/01/29 14:01:58;;;;;;;;;;;5.60;93.80;;;;;;5023417;28;19922;-72
2022/01/29 14:04:38;;;;;;;;;;;5.60;93.80;;;;;;5022522;28;19910;-71
2022/01/29 14:07:10;;;;;;;;;;;5.50;93.90;;;;;;5023245;28;19913;-70
2022/01/29 14:09:51;;;;;;;;;;;5.50;94.00;;;;;;5023004;28;20032;-71
2022/01/29 14:12:20;;;;;;;;;;;5.40;94.20;;;;;;5024237;28;19935;-71
2022/01/29 14:14:51;;;;;;;;;;;5.40;94.20;;;;;;5023649;28;20119;-71
2022/01/29 14:17:27;;;;;;;;;;;5.50;94.40;;;;;;5023564;28;19916;-72
2022/01/29 14:20:03;;;;;;;;;;;5.50;94.20;;;;;;5023946;28;19910;-72
2022/01/29 14:22:32;;;;;;;;;;;5.40;94.30;;;;;;5021084;28;19909;-71
2022/01/29 14:25:00;;;;;;;;;;;5.40;94.40;;;;;;5022125;28;19948;-71
2022/01/29 14:27:28;;;;;;;;;;;5.50;94.60;;;;;;5022118;28;19913;-71
2022/01/29 14:29:53;;;;;;;;;;;5.40;94.50;;;;;;5021068;28;20215;-71
2022/01/29 14:32:20;;;;;;;;;;;5.50;94.60;;;;;;5022546;28;19981;-71
2022/01/29 14:34:46;;;;;;;;;;;5.50;94.40;;;;;;5021002;28;19916;-71
2022/01/29 14:37:12;;;;;;;;;;;5.50;94.50;;;;;;5022661;28;19909;-71
2022/01/29 14:39:39;;;;;;;;;;;5.50;94.60;;;;;;5022450;28;19933;-70
2022/01/29 14:42:08;;;;;;;;;;;5.50;94.80;;;;;;5022646;28;19952;-71
2022/01/29 14:44:36;;;;;;;;;;;5.50;94.90;;;;;;5021513;28;19945;-71
2022/01/29 14:47:02;;;;;;;;;;;5.50;95.00;;;;;;5005481;28;19913;-71
2022/01/29 14:49:28;;;;;;;;;;;5.50;95.10;;;;;;5022746;28;19917;-71
2022/01/29 14:51:54;;;;;;;;;;;5.50;95.20;;;;;;5022560;28;19989;-71
2022/01/29 14:54:20;;;;;;;;;;;5.40;95.30;;;;;;5038015;28;19932;-71